createdAt,value
2017-08-30T00:02:26.837Z,40.00
2017-08-30T00:05:01.358Z,40.87
2017-08-30T00:07:35.850Z,38.77
2017-08-30T00:10:10.209Z,39.50
2017-08-30T00:12:44.725Z,42.30
2017-08-30T00:15:19.129Z,40.13
2017-08-30T00:17:53.665Z,42.07
2017-08-30T00:20:28.212Z,38.80
2017-08-30T00:23:02.682Z,38.13
2017-08-30T00:25:49.040Z,37.17
2017-08-30T00:28:23.411Z,38.13
2017-08-30T00:30:58.560Z,36.47
2017-08-30T00:33:33.025Z,37.87
2017-08-30T00:36:07.585Z,33.13
2017-08-30T00:38:41.924Z,35.60
2017-08-30T00:41:16.489Z,36.70
2017-08-30T00:43:50.968Z,33.70
2017-08-30T00:46:25.600Z,35.80
2017-08-30T00:48:59.969Z,33.90
2017-08-30T00:51:34.378Z,33.13
2017-08-30T00:54:08.788Z,35.27
2017-08-30T00:56:43.482Z,33.60
2017-08-30T00:59:17.995Z,31.83
2017-08-30T01:01:52.526Z,30.75
2017-08-30T01:04:27.057Z,28.83
2017-08-30T01:07:01.461Z,30.87
2017-08-30T01:09:36.201Z,27.80
2017-08-30T01:12:10.569Z,29.27
2017-08-30T01:14:45.112Z,29.20
2017-08-30T01:17:19.618Z,29.65
2017-08-30T01:19:54.386Z,27.90
2017-08-30T01:22:28.852Z,31.50
2017-08-30T01:25:03.360Z,31.70
2017-08-30T01:27:37.840Z,33.40
2017-08-30T01:30:12.225Z,31.87
2017-08-30T01:32:46.827Z,33.95
2017-08-30T01:35:21.180Z,33.17
2017-08-30T01:37:55.720Z,30.37
2017-08-30T01:40:30.247Z,32.77
2017-08-30T01:43:04.673Z,34.70
2017-08-30T01:45:39.208Z,33.37
2017-08-30T01:48:13.709Z,36.33
2017-08-30T01:50:48.324Z,33.20
2017-08-30T01:53:22.659Z,35.60
2017-08-30T01:55:57.163Z,36.10
2017-08-30T01:58:31.696Z,34.40
2017-08-30T02:01:06.212Z,37.87
2017-08-30T02:03:40.689Z,35.23
2017-08-30T02:06:15.364Z,35.60
2017-08-30T02:08:49.880Z,37.43
2017-08-30T02:11:24.414Z,39.88
2017-08-30T02:13:58.750Z,35.97
2017-08-30T02:16:33.111Z,37.50
2017-08-30T02:19:07.492Z,40.33
2017-08-30T02:21:41.837Z,40.03
2017-08-30T02:24:16.474Z,39.90
2017-08-30T02:26:50.805Z,40.95
2017-08-30T02:29:25.215Z,41.35
2017-08-30T02:31:59.553Z,43.35
2017-08-30T02:34:34.123Z,44.63
2017-08-30T02:37:08.619Z,38.88
2017-08-30T02:39:43.042Z,41.37
2017-08-30T02:42:17.418Z,42.03
2017-08-30T02:44:51.953Z,40.58
2017-08-30T02:47:26.432Z,40.45
2017-08-30T02:50:00.998Z,42.53
2017-08-30T02:52:35.532Z,40.60
2017-08-30T02:55:10.297Z,41.25
2017-08-30T02:57:44.736Z,38.47
2017-08-30T03:00:19.314Z,36.88
2017-08-30T03:02:53.948Z,40.95
2017-08-30T03:05:28.428Z,38.97
2017-08-30T03:08:03.196Z,40.55
2017-08-30T03:10:37.708Z,39.65
2017-08-30T03:13:12.123Z,40.53
2017-08-30T03:15:46.424Z,41.63
2017-08-30T03:18:20.857Z,42.22
2017-08-30T03:20:55.356Z,43.47
2017-08-30T03:23:29.795Z,40.28
2017-08-30T03:26:04.172Z,41.42
2017-08-30T03:28:38.673Z,46.90
2017-08-30T03:31:13.137Z,44.80
2017-08-30T03:33:47.589Z,48.55
2017-08-30T03:36:22.268Z,48.65
2017-08-30T03:38:56.710Z,46.17
2017-08-30T03:41:31.171Z,47.40
2017-08-30T03:44:05.452Z,45.08
2017-08-30T03:46:39.873Z,46.60
2017-08-30T03:49:14.229Z,45.12
2017-08-30T03:51:49.014Z,47.35
2017-08-30T03:54:23.428Z,47.55
2017-08-30T03:56:58.045Z,49.20
2017-08-30T03:59:32.572Z,46.80
2017-08-30T04:02:07.105Z,49.22
2017-08-30T04:04:41.607Z,49.67
2017-08-30T04:07:16.168Z,46.65
2017-08-30T04:09:50.532Z,46.45
2017-08-30T04:12:24.978Z,45.15
2017-08-30T04:14:59.496Z,46.33
2017-08-30T04:17:33.942Z,49.05
2017-08-30T04:23:11.961Z,48.50
2017-08-30T04:25:46.346Z,47.30
2017-08-30T04:28:20.765Z,49.72
2017-08-30T04:30:55.332Z,49.83
2017-08-30T04:33:29.994Z,51.03
2017-08-30T04:36:04.324Z,53.10
2017-08-30T04:38:38.657Z,49.38
2017-08-30T04:41:13.123Z,46.72
2017-08-30T04:43:47.493Z,47.90
2017-08-30T04:46:21.885Z,49.97
2017-08-30T04:48:56.261Z,51.65
2017-08-30T04:51:30.579Z,54.50
2017-08-30T04:54:05.029Z,52.25
2017-08-30T04:56:39.541Z,52.38
2017-08-30T04:59:13.916Z,51.40
2017-08-30T05:01:48.362Z,53.08
2017-08-30T05:04:22.753Z,52.50
2017-08-30T05:06:57.120Z,50.90
2017-08-30T05:09:31.660Z,49.83
2017-08-30T05:12:06.159Z,52.75
2017-08-30T05:14:40.583Z,50.12
2017-08-30T05:17:15.060Z,50.22
2017-08-30T05:19:49.687Z,45.07
2017-08-30T05:22:24.063Z,49.90
2017-08-30T05:24:58.536Z,47.85
2017-08-30T05:27:32.913Z,49.13
2017-08-30T05:30:07.552Z,48.20
2017-08-30T05:32:42.091Z,48.33
2017-08-30T05:35:16.604Z,46.75
2017-08-30T05:37:51.114Z,47.33
2017-08-30T05:40:25.700Z,47.88
2017-08-30T05:43:00.025Z,47.33
2017-08-30T05:45:34.563Z,48.58
2017-08-30T05:48:08.956Z,46.05
2017-08-30T05:50:43.480Z,49.00
2017-08-30T05:53:17.853Z,49.30
2017-08-30T05:55:52.567Z,47.20
2017-08-30T05:58:27.090Z,47.28
2017-08-30T06:01:01.461Z,47.53
2017-08-30T06:03:35.970Z,50.35
2017-08-30T06:06:10.360Z,45.20
2017-08-30T06:08:44.729Z,48.03
2017-08-30T06:11:19.078Z,44.30
2017-08-30T06:13:53.581Z,45.45
2017-08-30T06:16:28.237Z,43.95
2017-08-30T06:19:02.746Z,41.13
2017-08-30T06:21:37.486Z,40.00
2017-08-30T06:24:11.835Z,35.97
2017-08-30T06:26:46.348Z,37.25
2017-08-30T06:29:20.869Z,34.47
2017-08-30T06:32:12.141Z,30.60
2017-08-30T06:34:46.467Z,32.10
2017-08-30T06:37:20.882Z,32.97
2017-08-30T06:39:55.405Z,34.93
2017-08-30T06:42:29.793Z,34.03
2017-08-30T06:45:04.229Z,31.70
2017-08-30T06:47:38.665Z,31.40
2017-08-30T06:50:13.098Z,31.10
2017-08-30T06:52:47.434Z,31.73
2017-08-30T06:55:21.745Z,31.37
2017-08-30T06:57:56.152Z,31.43
2017-08-30T07:00:30.534Z,29.50
2017-08-30T07:03:05.183Z,28.77
2017-08-30T07:05:40.448Z,26.60
2017-08-30T07:08:16.177Z,27.10
2017-08-30T07:10:50.562Z,28.50
2017-08-30T07:13:25.130Z,28.20
2017-08-30T07:15:59.489Z,31.03
2017-08-30T07:18:34.170Z,29.65
2017-08-30T07:21:08.470Z,27.00
2017-08-30T07:23:42.941Z,27.37
2017-08-30T07:26:17.410Z,27.70
2017-08-30T07:28:52.031Z,27.77
2017-08-30T07:31:26.360Z,26.40
2017-08-30T07:34:01.081Z,25.00
2017-08-30T07:36:35.537Z,27.10
2017-08-30T07:39:09.865Z,26.63
2017-08-30T07:41:44.450Z,27.70
2017-08-30T07:44:18.853Z,30.20
2017-08-30T07:46:53.488Z,28.90
2017-08-30T07:49:27.989Z,28.77
2017-08-30T07:52:02.637Z,30.80
2017-08-30T07:54:36.972Z,32.60
2017-08-30T07:57:11.640Z,32.30
2017-08-30T07:59:46.006Z,32.17
2017-08-30T08:02:20.616Z,34.13
2017-08-30T08:04:54.956Z,36.77
2017-08-30T08:07:29.405Z,39.63
2017-08-30T08:10:03.743Z,37.00
2017-08-30T08:12:38.665Z,36.60
2017-08-30T08:15:13.082Z,41.27
2017-08-30T08:17:47.497Z,43.17
2017-08-30T08:20:22.113Z,40.30
2017-08-30T08:22:56.477Z,40.77
2017-08-30T08:25:30.913Z,40.43
2017-08-30T08:28:05.496Z,37.10
2017-08-30T08:30:40.076Z,33.80
2017-08-30T08:33:14.501Z,38.30
2017-08-30T08:35:49.019Z,37.57
2017-08-30T08:38:23.536Z,36.13
2017-08-30T08:40:57.931Z,37.43
2017-08-30T08:43:32.566Z,38.53
2017-08-30T08:46:07.059Z,40.70
2017-08-30T08:48:41.836Z,43.27
2017-08-30T08:51:16.435Z,39.43
2017-08-30T08:53:51.156Z,36.60
2017-08-30T08:56:25.687Z,33.20
2017-08-30T08:59:00.120Z,31.07
2017-08-30T09:01:34.593Z,26.80
2017-08-30T09:04:09.264Z,27.80
2017-08-30T09:06:43.764Z,29.07
2017-08-30T09:09:18.122Z,25.87
2017-08-30T09:11:52.573Z,22.07
2017-08-30T09:14:27.435Z,21.50
2017-08-30T09:17:01.938Z,20.77
2017-08-30T09:19:36.444Z,23.67
2017-08-30T09:22:10.989Z,23.20
2017-08-30T09:24:45.516Z,20.00
2017-08-30T09:27:19.909Z,20.73
2017-08-30T09:29:54.349Z,20.47
2017-08-30T09:32:28.977Z,20.63
2017-08-30T09:35:03.543Z,16.90
2017-08-30T09:37:38.041Z,16.10
2017-08-30T09:40:12.558Z,18.07
2017-08-30T09:42:46.901Z,14.97
2017-08-30T09:45:21.372Z,15.70
2017-08-30T09:47:56.024Z,15.90
2017-08-30T09:50:30.402Z,15.40
2017-08-30T09:53:04.782Z,15.70
2017-08-30T09:55:39.269Z,15.20
2017-08-30T09:58:13.895Z,13.43
2017-08-30T10:00:48.246Z,14.30
2017-08-30T10:03:22.733Z,15.13
2017-08-30T10:05:57.225Z,14.50
2017-08-30T10:08:31.584Z,16.17
2017-08-30T10:11:05.936Z,16.77
2017-08-30T10:13:40.277Z,15.73
2017-08-30T10:16:14.696Z,16.67
2017-08-30T10:18:49.067Z,16.67
2017-08-30T10:21:23.544Z,15.80
2017-08-30T10:23:57.925Z,15.40
2017-08-30T10:26:32.484Z,16.03
2017-08-30T10:29:06.870Z,12.83
2017-08-30T10:31:41.425Z,17.27
2017-08-30T10:34:15.788Z,12.60
2017-08-30T10:36:50.296Z,13.80
2017-08-30T10:39:24.695Z,12.93
2017-08-30T10:41:59.170Z,12.30
2017-08-30T10:44:33.849Z,11.50
2017-08-30T10:47:08.365Z,12.00
2017-08-30T10:49:42.989Z,10.97
2017-08-30T10:52:17.439Z,10.80
2017-08-30T10:54:51.824Z,11.43
2017-08-30T10:57:26.161Z,11.03
2017-08-30T11:00:00.689Z,10.27
2017-08-30T11:02:35.087Z,11.50
2017-08-30T11:05:09.386Z,10.10
2017-08-30T11:07:43.764Z,11.27
2017-08-30T11:10:18.211Z,9.37
2017-08-30T11:12:52.906Z,11.90
2017-08-30T11:15:27.285Z,12.10
2017-08-30T11:18:01.773Z,11.63
2017-08-30T11:20:36.170Z,11.77
2017-08-30T11:23:10.529Z,11.37
2017-08-30T11:25:44.953Z,10.83
2017-08-30T11:28:19.394Z,11.83
2017-08-30T11:30:53.945Z,10.50
2017-08-30T11:33:28.485Z,10.10
2017-08-30T11:36:03.141Z,12.10
2017-08-30T11:38:37.869Z,11.40
2017-08-30T11:41:12.295Z,12.03
2017-08-30T11:43:46.680Z,11.33
2017-08-30T11:46:21.012Z,13.17
2017-08-30T11:48:55.766Z,14.00
2017-08-30T11:51:30.247Z,15.70
2017-08-30T11:54:04.674Z,13.83
2017-08-30T11:56:39.000Z,13.60
2017-08-30T11:59:13.356Z,13.53
2017-08-30T12:01:47.702Z,12.63
2017-08-30T12:04:22.376Z,15.43
2017-08-30T12:06:56.891Z,14.83
2017-08-30T12:09:31.301Z,14.80
2017-08-30T12:12:05.749Z,15.80
2017-08-30T12:14:40.167Z,18.37
2017-08-30T12:17:14.665Z,20.33
2017-08-30T12:19:49.204Z,19.97
2017-08-30T12:22:23.527Z,21.77
2017-08-30T12:24:57.881Z,20.17
2017-08-30T12:27:33.118Z,19.33
2017-08-30T12:30:07.796Z,18.17
2017-08-30T12:32:42.244Z,17.73
2017-08-30T12:35:16.598Z,18.57
2017-08-30T12:37:56.878Z,16.33
2017-08-30T12:40:31.293Z,13.00
2017-08-30T12:43:05.816Z,14.10
2017-08-30T12:45:41.735Z,13.80
2017-08-30T12:48:16.081Z,11.00
2017-08-30T12:50:50.460Z,10.83
2017-08-30T12:53:24.753Z,11.50
2017-08-30T12:55:59.141Z,11.20
2017-08-30T12:58:33.624Z,11.00
2017-08-30T13:01:08.322Z,10.00
2017-08-30T13:03:42.838Z,12.10
2017-08-30T13:06:17.332Z,13.00
2017-08-30T13:08:51.869Z,14.00
2017-08-30T13:11:26.341Z,14.80
2017-08-30T13:14:00.797Z,20.07
2017-08-30T13:16:36.084Z,23.03
2017-08-30T13:19:10.549Z,25.50
2017-08-30T13:21:44.905Z,24.83
2017-08-30T13:24:19.344Z,26.00
2017-08-30T13:26:53.672Z,27.10
2017-08-30T13:29:28.112Z,26.43
2017-08-30T13:32:02.489Z,27.67
2017-08-30T13:34:37.113Z,23.90
2017-08-30T13:37:11.609Z,25.27
2017-08-30T13:39:45.966Z,26.23
2017-08-30T13:42:20.413Z,27.00
2017-08-30T13:44:54.985Z,26.67
2017-08-30T13:47:29.497Z,23.40
2017-08-30T13:50:03.953Z,26.63
2017-08-30T13:52:38.431Z,24.73
2017-08-30T13:55:12.887Z,23.50
2017-08-30T13:57:47.333Z,21.83
2017-08-30T14:00:21.684Z,21.90
2017-08-30T14:02:56.136Z,23.60
2017-08-30T14:05:30.552Z,25.33
2017-08-30T14:08:04.914Z,23.37
2017-08-30T14:10:39.237Z,22.50
2017-08-30T14:13:13.969Z,23.87
2017-08-30T14:15:49.235Z,20.40
2017-08-30T14:18:23.575Z,21.83
2017-08-30T14:20:58.021Z,20.97
2017-08-30T14:23:32.408Z,19.27
2017-08-30T14:26:07.512Z,20.43
2017-08-30T14:28:41.790Z,19.37
2017-08-30T14:31:16.809Z,18.23
2017-08-30T14:33:51.244Z,18.50
2017-08-30T14:36:25.580Z,20.23
2017-08-30T14:38:59.981Z,21.30
2017-08-30T14:41:34.529Z,20.13
2017-08-30T14:44:08.905Z,20.23
2017-08-30T14:46:43.343Z,20.50
2017-08-30T14:49:17.904Z,20.17
2017-08-30T14:51:52.303Z,21.80
2017-08-30T14:54:26.834Z,21.17
2017-08-30T14:57:01.165Z,22.17
2017-08-30T14:59:35.610Z,21.80
2017-08-30T15:02:10.138Z,23.70
2017-08-30T15:04:44.485Z,23.00
2017-08-30T15:07:18.917Z,22.30
2017-08-30T15:09:53.678Z,21.07
2017-08-30T15:12:28.223Z,21.67
2017-08-30T15:15:02.965Z,19.60
2017-08-30T15:17:37.561Z,20.90
2017-08-30T15:20:12.072Z,20.40
2017-08-30T15:22:46.620Z,20.50
2017-08-30T15:25:22.405Z,20.67
2017-08-30T15:27:56.884Z,20.33
2017-08-30T15:30:31.380Z,22.10
2017-08-30T15:33:05.812Z,20.37
2017-08-30T15:35:41.325Z,22.20
2017-08-30T15:38:15.817Z,19.90
2017-08-30T15:40:51.191Z,20.03
2017-08-30T15:43:25.588Z,19.83
2017-08-30T15:46:02.193Z,21.90
2017-08-30T15:48:36.773Z,19.70
2017-08-30T15:51:14.244Z,22.20
2017-08-30T15:53:49.802Z,19.53
2017-08-30T15:56:24.787Z,20.00
2017-08-30T15:58:59.659Z,19.83
2017-08-30T16:01:34.990Z,19.03
2017-08-30T16:04:10.178Z,17.57
2017-08-30T16:06:44.694Z,18.00
2017-08-30T16:09:19.774Z,18.87
2017-08-30T16:11:54.565Z,18.10
2017-08-30T16:14:29.118Z,18.53
2017-08-30T16:17:03.726Z,16.47
2017-08-30T16:19:38.397Z,16.93
2017-08-30T16:22:12.753Z,17.00
2017-08-30T16:24:47.680Z,17.60
2017-08-30T16:27:22.470Z,18.00
2017-08-30T16:29:57.138Z,18.23
2017-08-30T16:32:31.456Z,18.40
2017-08-30T16:35:05.971Z,17.90
2017-08-30T16:37:40.457Z,18.17
2017-08-30T16:40:14.880Z,19.20
2017-08-30T16:42:49.444Z,18.53
2017-08-30T16:45:23.937Z,19.77
2017-08-30T16:47:58.594Z,19.57
2017-08-30T16:50:33.093Z,18.80
2017-08-30T16:53:08.278Z,19.00
2017-08-30T16:55:42.941Z,18.07
2017-08-30T16:58:17.483Z,18.27
2017-08-30T17:00:53.266Z,18.43
2017-08-30T17:03:27.802Z,18.63
2017-08-30T17:06:02.284Z,21.00
2017-08-30T17:08:36.872Z,21.97
2017-08-30T17:11:11.372Z,22.17
2017-08-30T17:13:45.852Z,22.27
2017-08-30T17:16:20.333Z,22.50
2017-08-30T17:18:54.909Z,24.20
2017-08-30T17:21:29.301Z,24.77
2017-08-30T17:24:03.818Z,25.37
2017-08-30T17:26:38.326Z,26.37
2017-08-30T17:29:12.788Z,27.87
2017-08-30T17:31:47.243Z,29.20
2017-08-30T17:34:21.785Z,28.50
2017-08-30T17:36:56.149Z,29.77
2017-08-30T17:39:30.618Z,29.73
2017-08-30T17:42:05.200Z,27.80
2017-08-30T17:44:39.978Z,31.53
2017-08-30T17:47:15.166Z,32.00
2017-08-30T17:49:49.577Z,31.67
2017-08-30T17:52:24.176Z,35.00
2017-08-30T17:54:58.542Z,36.97
2017-08-30T17:57:32.984Z,36.87
2017-08-30T18:00:07.738Z,35.97
2017-08-30T18:02:42.209Z,34.47
2017-08-30T18:05:16.738Z,40.90
2017-08-30T18:07:51.337Z,38.73
2017-08-30T18:10:30.123Z,40.73
2017-08-30T18:13:04.464Z,39.33
2017-08-30T18:15:39.192Z,38.00
2017-08-30T18:18:13.484Z,35.90
2017-08-30T18:20:48.024Z,34.93
2017-08-30T18:23:22.335Z,37.97
2017-08-30T18:25:56.697Z,36.47
2017-08-30T18:28:31.267Z,38.60
2017-08-30T18:31:05.680Z,39.10
2017-08-30T18:33:40.140Z,38.50
2017-08-30T18:36:14.818Z,39.70
2017-08-30T18:38:49.245Z,41.67
2017-08-30T18:41:23.806Z,41.80
2017-08-30T18:43:59.248Z,42.30
2017-08-30T18:46:33.757Z,43.63
2017-08-30T18:49:08.169Z,39.70
2017-08-30T18:51:42.658Z,42.90
2017-08-30T18:54:17.017Z,39.03
2017-08-30T18:56:51.494Z,43.77
2017-08-30T18:59:26.263Z,41.23
2017-08-30T19:02:00.601Z,41.30
2017-08-30T19:04:35.073Z,41.43
2017-08-30T19:07:09.497Z,43.43
2017-08-30T19:09:43.985Z,44.10
2017-08-30T19:12:18.353Z,43.27
2017-08-30T19:14:53.449Z,46.33
2017-08-30T19:17:27.820Z,42.97
2017-08-30T19:20:02.213Z,45.53
2017-08-30T19:22:36.701Z,43.70
2017-08-30T19:25:11.964Z,45.07
2017-08-30T19:27:46.500Z,44.10
2017-08-30T19:30:20.972Z,43.10
2017-08-30T19:32:55.616Z,43.67
2017-08-30T19:35:29.889Z,46.22
2017-08-30T19:38:04.545Z,41.95
2017-08-30T19:40:38.941Z,45.50
2017-08-30T19:43:13.643Z,44.73
2017-08-30T19:45:48.120Z,44.20
2017-08-30T19:48:22.809Z,42.40
2017-08-30T19:50:57.197Z,45.37
2017-08-30T19:53:31.689Z,43.65
2017-08-30T19:56:06.065Z,43.50
2017-08-30T19:58:40.794Z,43.10
2017-08-30T20:01:15.096Z,45.30
2017-08-30T20:03:49.489Z,44.83
2017-08-30T20:06:23.929Z,40.58
2017-08-30T20:08:58.411Z,42.70
2017-08-30T20:11:32.841Z,42.58
2017-08-30T20:14:07.240Z,43.75
2017-08-30T20:16:41.696Z,41.90
2017-08-30T20:19:16.260Z,46.77
2017-08-30T20:21:50.789Z,46.15
2017-08-30T20:24:25.268Z,49.08
2017-08-30T20:27:00.008Z,52.75
2017-08-30T20:29:34.467Z,55.63
2017-08-30T20:32:08.912Z,55.42
2017-08-30T20:34:43.463Z,53.70
2017-08-30T20:37:17.992Z,54.00
2017-08-30T20:39:52.722Z,57.25
2017-08-30T20:42:27.227Z,58.15
2017-08-30T20:45:01.636Z,56.83
2017-08-30T20:47:36.105Z,60.53
2017-08-30T20:50:10.628Z,59.00
2017-08-30T20:52:45.101Z,60.80
2017-08-30T20:55:19.573Z,62.03
2017-08-30T20:57:53.993Z,60.50
2017-08-30T21:00:28.333Z,61.45
2017-08-30T21:03:02.773Z,59.15
2017-08-30T21:05:37.329Z,61.15
2017-08-30T21:08:11.752Z,59.35
2017-08-30T21:10:46.137Z,58.70
2017-08-30T21:13:20.604Z,56.42
2017-08-30T21:15:55.065Z,53.38
2017-08-30T21:18:29.639Z,53.87
2017-08-30T21:21:04.024Z,51.92
2017-08-30T21:23:38.545Z,52.35
2017-08-30T21:26:13.199Z,54.90
2017-08-30T21:28:47.679Z,56.17
2017-08-30T21:31:22.129Z,51.45
2017-08-30T21:33:56.541Z,52.58
2017-08-30T21:36:31.004Z,53.30
2017-08-30T21:39:05.500Z,53.28
2017-08-30T21:41:39.825Z,51.10
2017-08-30T21:44:14.444Z,48.60
2017-08-30T21:46:48.743Z,51.42
2017-08-30T21:49:23.368Z,51.83
2017-08-30T21:51:57.758Z,54.42
2017-08-30T21:54:32.260Z,54.22
2017-08-30T21:57:06.737Z,49.60
2017-08-30T21:59:41.461Z,53.83
2017-08-30T22:02:15.932Z,51.10
2017-08-30T22:04:50.337Z,49.25
2017-08-30T22:07:24.680Z,48.40
2017-08-30T22:09:59.224Z,47.83
2017-08-30T22:12:33.773Z,46.92
2017-08-30T22:15:08.173Z,48.42
2017-08-30T22:17:43.105Z,47.75
2017-08-30T22:20:17.630Z,47.20
2017-08-30T22:22:52.024Z,47.60
2017-08-30T22:25:26.716Z,42.20
2017-08-30T22:28:01.224Z,43.42
2017-08-30T22:30:35.583Z,41.28
2017-08-30T22:33:10.948Z,39.30
2017-08-30T22:35:45.347Z,36.72
2017-08-30T22:38:19.689Z,35.97
2017-08-30T22:40:54.102Z,35.22
2017-08-30T22:43:28.638Z,36.07
2017-08-30T22:46:03.004Z,34.50
2017-08-30T22:48:37.776Z,33.70
2017-08-30T22:51:12.070Z,36.80
2017-08-30T22:53:46.716Z,33.20
2017-08-30T22:56:21.035Z,30.42
2017-08-30T22:58:55.765Z,31.95
2017-08-30T23:01:30.133Z,30.50
2017-08-30T23:04:04.616Z,30.80
2017-08-30T23:06:39.077Z,29.60
2017-08-30T23:09:13.853Z,24.87
2017-08-30T23:11:48.133Z,24.30
2017-08-30T23:14:22.903Z,25.67
2017-08-30T23:16:57.475Z,24.23
2017-08-30T23:19:32.345Z,22.42
2017-08-30T23:22:06.721Z,22.95
2017-08-30T23:24:41.492Z,23.27
2017-08-30T23:27:15.841Z,24.10
2017-08-30T23:29:50.192Z,25.52
2017-08-30T23:32:24.677Z,25.57
2017-08-30T23:34:59.225Z,28.52
2017-08-30T23:37:33.781Z,25.70
2017-08-30T23:40:08.422Z,27.70
2017-08-30T23:42:42.983Z,25.80
2017-08-30T23:45:17.469Z,24.30
2017-08-30T23:47:51.996Z,24.90
2017-08-30T23:50:26.381Z,23.85
2017-08-30T23:53:00.912Z,25.33
2017-08-30T23:55:36.263Z,24.05
